Time;durP1;ratioP1;P1;durP2;ratioP2;P2;SDS_P1;SDS_P2;PMS_P1;PMS_P2;Temp;Humidity;BMP_temperature;BMP_pressure;BME280_temperature;BME280_humidity;BME280_pressure;Samples;Min_cycle;Max_cycle;Signal;HPM_P1;HPM_P2
2023/01/17 00:02:22;;;;;;;;;7.00;4.00;;;;;5.03;82.25;98174.91;5074730;28;45816;-78
2023/01/17 00:10:24;;;;;;;;;7.00;5.00;;;;;5.08;82.14;98198.66;5075217;28;45943;-76
2023/01/17 00:12:55;;;;;;;;;5.00;2.00;;;;;4.97;82.10;98172.84;5091468;27;45717;-76
2023/01/17 00:15:22;;;;;;;;;4.00;3.00;;;;;5.04;82.34;98186.94;5074111;28;46591;-77
2023/01/17 00:17:48;;;;;;;;;1.00;1.00;;;;;5.02;82.52;98183.63;5074039;28;46000;-75
2023/01/17 00:26:04;;;;;;;;;6.00;5.00;;;;;5.06;82.97;98184.22;5074040;28;46020;-80
2023/01/17 01:33:41;;;;;;;;;3.50;3.50;;;;;5.25;83.68;98141.88;5076828;28;45695;-79
2023/01/17 01:36:08;;;;;;;;;4.00;4.00;;;;;5.26;83.41;98135.72;5076618;28;45805;-76
2023/01/17 01:38:33;;;;;;;;;4.50;1.50;;;;;5.25;83.28;98139.28;5058649;28;45531;-76
2023/01/17 01:40:59;;;;;;;;;4.50;2.00;;;;;5.28;83.39;98141.63;5076952;28;45585;-76
2023/01/17 01:43:45;;;;;;;;;2.00;2.00;;;;;5.29;83.61;98146.66;5076701;28;46178;-76
2023/01/17 01:46:15;;;;;;;;;2.50;1.25;;;;;5.29;83.13;98143.25;5076327;28;45620;-76
2023/01/17 01:48:53;;;;;;;;;4.00;4.00;;;;;5.29;83.14;98132.88;5076191;27;45572;-78
2023/01/17 01:51:23;;;;;;;;;4.75;4.00;;;;;5.23;83.83;98121.25;5076601;28;45542;-76
2023/01/17 01:53:51;;;;;;;;;2.00;1.25;;;;;5.22;83.39;98113.59;5077148;28;46260;-75
2023/01/17 01:56:18;;;;;;;;;3.50;2.00;;;;;5.30;83.95;98129.31;5076792;28;45914;-78
2023/01/17 01:58:47;;;;;;;;;2.00;1.75;;;;;5.33;83.51;98129.03;5058334;28;45553;-76
2023/01/17 02:01:14;;;;;;;;;4.50;1.75;;;;;5.34;83.38;98128.09;5076354;28;47323;-76
2023/01/17 02:03:40;;;;;;;;;1.00;1.00;;;;;5.22;83.78;98092.84;5077685;28;47533;-75
2023/01/17 02:06:13;;;;;;;;;2.00;2.00;;;;;5.24;83.57;98090.91;5076503;28;45657;-75
2023/01/17 02:08:40;;;;;;;;;3.00;2.00;;;;;5.36;83.55;98110.59;5076408;28;45737;-76
2023/01/17 02:11:06;;;;;;;;;2.25;2.25;;;;;5.24;83.71;98088.31;5057614;28;47672;-77
2023/01/17 02:13:31;;;;;;;;;2.00;2.00;;;;;5.35;83.34;98103.75;5076009;28;46315;-77
2023/01/17 02:23:10;;;;;;;;;2.00;2.00;;;;;5.36;83.46;98085.44;5075794;28;46089;-76
2023/01/17 02:26:00;;;;;;;;;8.00;5.50;;;;;5.38;83.88;98088.72;5074369;28;48342;-78
2023/01/17 02:28:47;;;;;;;;;3.50;2.00;;;;;5.39;83.59;98090.38;5075449;28;45728;-79
2023/01/17 02:34:54;;;;;;;;;4.25;1.75;;;;;5.40;83.40;98068.63;5075153;28;46042;-76
2023/01/17 02:37:38;;;;;;;;;1.25;1.25;;;;;5.36;83.28;98067.28;5075667;28;46302;-78
2023/01/17 02:40:37;;;;;;;;;4.00;3.50;;;;;5.39;83.63;98059.22;5076402;28;45612;-79
2023/01/17 02:43:09;;;;;;;;;5.25;5.00;;;;;5.33;83.45;98043.38;5075937;28;45593;-80
2023/01/17 02:45:34;;;;;;;;;4.25;3.00;;;;;5.40;83.38;98049.63;5075530;28;46617;-80
2023/01/17 02:51:59;;;;;;;;;5.00;1.50;;;;;5.39;84.03;98028.06;5066518;28;45935;-77
2023/01/17 02:54:58;;;;;;;;;4.50;4.00;;;;;5.38;83.87;98026.44;5075938;28;45682;-78
2023/01/17 02:57:29;;;;;;;;;7.00;6.50;;;;;5.39;83.41;98020.28;5075264;28;45554;-79
2023/01/17 03:00:25;;;;;;;;;5.50;4.25;;;;;5.40;83.49;98021.06;5075297;28;46388;-80
2023/01/17 03:06:22;;;;;;;;;6.50;4.75;;;;;5.39;83.81;98007.31;5032651;28;45598;-76
2023/01/17 03:08:50;;;;;;;;;6.00;4.50;;;;;5.40;83.75;97998.53;5032177;28;46947;-77
2023/01/17 03:11:16;;;;;;;;;5.00;4.00;;;;;5.30;83.48;97989.13;5032548;28;46179;-77
2023/01/17 03:13:42;;;;;;;;;5.00;4.00;;;;;5.32;83.65;97980.25;5032351;28;45658;-80
2023/01/17 03:16:15;;;;;;;;;7.00;4.75;;;;;5.40;83.44;97995.13;5033356;28;45598;-79
2023/01/17 03:22:02;;;;;;;;;5.00;5.00;;;;;5.38;83.67;97977.09;5033355;28;46088;-79
2023/01/17 03:24:27;;;;;;;;;7.25;7.00;;;;;5.37;83.72;97972.88;5035771;28;45753;-77
2023/01/17 03:26:54;;;;;;;;;6.25;5.00;;;;;5.28;83.81;97955.56;5033251;28;45733;-79
2023/01/17 03:29:19;;;;;;;;;5.00;4.00;;;;;5.38;83.77;97968.50;5032594;28;47448;-80
2023/01/17 03:31:45;;;;;;;;;7.25;5.00;;;;;5.35;83.71;97971.38;5032078;28;47212;-76
2023/01/17 03:37:32;;;;;;;;;10.00;7.25;;;;;5.35;83.29;97972.19;5032829;28;45746;-78
2023/01/17 03:39:57;;;;;;;;;7.00;7.00;;;;;5.27;83.52;97948.72;5047856;28;46910;-77
2023/01/17 03:42:22;;;;;;;;;8.00;7.00;;;;;5.34;83.31;97960.19;5055702;28;47021;-74
2023/01/17 03:44:48;;;;;;;;;8.50;7.00;;;;;5.25;83.26;97945.44;5074058;28;45696;-76
2023/01/17 03:47:13;;;;;;;;;8.00;7.00;;;;;5.26;83.45;97935.88;5073879;28;45674;-76
2023/01/17 03:49:40;;;;;;;;;8.75;7.50;;;;;5.31;83.43;97946.66;5073912;28;47186;-75
2023/01/17 03:52:06;;;;;;;;;8.50;7.00;;;;;5.32;83.05;97951.72;5074153;28;46001;-77
2023/01/17 03:54:32;;;;;;;;;9.00;7.00;;;;;5.30;83.23;97953.63;5074526;28;45610;-78
2023/01/17 03:56:57;;;;;;;;;11.00;8.00;;;;;5.31;83.27;97950.06;5079858;28;45483;-76
2023/01/17 03:59:22;;;;;;;;;7.00;6.50;;;;;5.27;83.30;97942.72;5077394;28;45796;-77
2023/01/17 04:01:48;;;;;;;;;12.75;9.25;;;;;5.29;83.61;97936.41;5058743;28;47294;-76
2023/01/17 04:07:35;;;;;;;;;14.50;11.25;;;;;5.26;83.40;97926.31;5075589;28;45562;-75
2023/01/17 04:10:01;;;;;;;;;8.00;7.75;;;;;5.28;83.53;97934.78;5074239;28;46901;-75
2023/01/17 04:12:26;;;;;;;;;10.50;10.50;;;;;5.23;83.57;97934.41;5073948;28;45603;-76
2023/01/17 04:14:51;;;;;;;;;9.00;8.25;;;;;5.26;83.32;97934.09;5073971;28;45825;-75
2023/01/17 04:17:19;;;;;;;;;12.25;8.50;;;;;5.25;83.27;97927.28;5073896;28;45605;-80
2023/01/17 04:23:06;;;;;;;;;9.50;7.50;;;;;5.22;83.25;97930.16;5074002;28;46282;-77
2023/01/17 04:25:32;;;;;;;;;10.75;9.50;;;;;5.22;83.43;97918.97;5073941;28;45716;-79
2023/01/17 04:27:59;;;;;;;;;8.00;7.75;;;;;5.16;83.70;97914.34;5073812;28;45633;-76
2023/01/17 04:30:25;;;;;;;;;10.75;7.75;;;;;5.17;83.44;97915.97;5073366;28;47553;-77
2023/01/17 04:32:50;;;;;;;;;11.25;8.00;;;;;5.22;83.39;97926.75;5073580;28;46128;-78
2023/01/17 04:35:16;;;;;;;;;14.00;11.00;;;;;5.21;83.21;97925.94;5073292;28;45733;-75
2023/01/17 04:37:42;;;;;;;;;10.00;8.00;;;;;5.13;83.55;97905.03;5073569;28;45674;-77
2023/01/17 04:40:09;;;;;;;;;14.50;11.75;;;;;5.22;83.53;97926.75;5073616;28;46267;-75
2023/01/17 04:42:34;;;;;;;;;13.00;11.25;;;;;5.20;83.83;97918.28;5073916;28;46654;-75
2023/01/17 04:45:01;;;;;;;;;11.75;8.50;;;;;5.15;83.51;97904.91;5073760;28;45455;-78
2023/01/17 04:47:26;;;;;;;;;10.75;9.25;;;;;5.21;83.55;97912.13;5075730;28;45917;-79
2023/01/17 04:53:14;;;;;;;;;11.75;8.00;;;;;5.22;83.01;97899.03;5063107;28;45720;-77
2023/01/17 04:55:39;;;;;;;;;9.25;8.00;;;;;5.21;83.50;97899.16;5074141;28;45691;-77
2023/01/17 04:58:05;;;;;;;;;14.25;10.50;;;;;5.18;83.39;97882.09;5076796;28;45675;-75
2023/01/17 05:00:30;;;;;;;;;8.50;7.50;;;;;5.15;83.38;97889.34;5077155;28;46523;-78
2023/01/17 05:02:55;;;;;;;;;8.00;7.25;;;;;5.17;83.20;97890.03;5077394;28;46283;-77
2023/01/17 05:08:42;;;;;;;;;8.75;7.75;;;;;5.13;83.31;97886.09;5076710;28;45561;-77
2023/01/17 05:11:08;;;;;;;;;10.25;9.50;;;;;5.11;83.27;97880.22;5076668;28;46867;-76
2023/01/17 05:13:33;;;;;;;;;13.00;11.50;;;;;5.10;83.30;97875.97;5077062;28;45714;-76
2023/01/17 05:15:59;;;;;;;;;8.25;8.00;;;;;5.05;83.44;97866.03;5076283;28;45581;-75
2023/01/17 05:18:24;;;;;;;;;16.50;11.00;;;;;5.08;83.15;97870.91;5077097;28;45589;-77
2023/01/17 05:20:49;;;;;;;;;10.50;9.50;;;;;5.09;83.42;97862.19;5079722;28;46748;-76
2023/01/17 05:23:15;;;;;;;;;11.25;9.25;;;;;5.09;83.25;97859.59;5079040;28;46308;-78
2023/01/17 05:25:43;;;;;;;;;14.50;13.50;;;;;5.04;83.54;97852.22;5079744;28;45569;-78
2023/01/17 05:28:09;;;;;;;;;18.50;12.00;;;;;5.06;83.37;97855.53;5078514;28;45670;-78
2023/01/17 05:30:34;;;;;;;;;14.00;11.00;;;;;4.95;83.72;97845.31;5078861;28;46698;-78
2023/01/17 05:32:59;;;;;;;;;17.50;13.00;;;;;4.99;83.37;97845.84;5077655;28;46153;-75
2023/01/17 05:38:47;;;;;;;;;15.00;12.25;;;;;4.99;83.63;97841.47;5076687;28;45550;-77
2023/01/17 05:41:12;;;;;;;;;12.75;11.25;;;;;4.95;83.45;97840.13;5076089;28;46329;-75
2023/01/17 05:43:37;;;;;;;;;13.25;11.50;;;;;4.92;83.57;97837.78;5076064;28;46975;-77
2023/01/17 05:46:03;;;;;;;;;11.00;9.25;;;;;4.92;83.35;97829.19;5076342;28;45691;-79
2023/01/17 05:48:28;;;;;;;;;13.00;9.50;;;;;4.85;82.95;97826.38;5076725;28;45549;-77
2023/01/17 05:54:15;;;;;;;;;8.00;6.00;;;;;4.87;83.21;97834.00;5066903;28;45729;-79
2023/01/17 05:56:41;;;;;;;;;10.50;8.00;;;;;4.81;83.54;97827.59;5076962;28;45771;-75
2023/01/17 05:59:06;;;;;;;;;8.00;7.00;;;;;4.87;83.37;97841.78;5077364;28;45557;-75
2023/01/17 06:01:31;;;;;;;;;9.00;8.00;;;;;4.81;83.63;97821.59;5077041;28;45661;-76
2023/01/17 06:03:57;;;;;;;;;11.50;8.50;;;;;4.89;83.16;97832.91;5076511;28;46226;-77
2023/01/17 06:06:22;;;;;;;;;8.25;8.25;;;;;4.91;83.63;97830.19;5041695;28;45703;-75
2023/01/17 06:08:47;;;;;;;;;10.00;9.00;;;;;4.92;83.30;97827.44;5077035;28;45902;-79
2023/01/17 06:11:13;;;;;;;;;10.75;10.25;;;;;4.93;83.55;97829.06;5079200;28;45687;-78
2023/01/17 06:13:38;;;;;;;;;9.75;9.75;;;;;4.95;83.17;97829.75;5081045;28;47077;-77
2023/01/17 06:16:05;;;;;;;;;18.00;14.00;;;;;4.92;83.67;97824.81;5081451;28;45744;-79
2023/01/17 06:18:31;;;;;;;;;14.25;11.00;;;;;4.86;83.09;97806.44;5077553;28;46084;-79
2023/01/17 06:24:18;;;;;;;;;15.00;13.00;;;;;5.01;83.51;97821.41;5078125;28;46185;-79
2023/01/17 06:26:43;;;;;;;;;14.75;13.50;;;;;5.03;83.50;97819.47;5076270;28;45712;-77
2023/01/17 06:29:13;;;;;;;;;11.50;11.00;;;;;5.03;83.12;97809.09;5077193;28;45527;-78
2023/01/17 06:31:38;;;;;;;;;14.75;14.00;;;;;5.06;83.39;97816.59;5074782;28;46478;-78
2023/01/17 06:34:03;;;;;;;;;17.00;15.00;;;;;5.07;83.52;97820.00;5075600;28;46154;-77
2023/01/17 06:39:51;;;;;;;;;14.50;11.00;;;;;5.12;83.09;97833.38;5075781;28;45723;-81
2023/01/17 06:42:16;;;;;;;;;14.25;12.50;;;;;5.12;83.31;97829.97;5075699;28;47160;-79
2023/01/17 06:44:41;;;;;;;;;16.25;13.50;;;;;5.15;83.21;97827.88;5075703;28;47061;-78
2023/01/17 06:47:07;;;;;;;;;14.50;12.75;;;;;5.16;83.32;97823.50;5075596;28;46168;-81
2023/01/17 06:49:32;;;;;;;;;21.00;18.00;;;;;5.21;83.75;97824.72;5075191;28;45866;-78
2023/01/17 06:51:57;;;;;;;;;15.75;13.25;;;;;5.23;83.79;97819.41;5075767;28;47333;-80
2023/01/17 06:54:23;;;;;;;;;14.50;12.00;;;;;5.26;83.31;97817.31;5075156;28;47104;-79
2023/01/17 06:56:48;;;;;;;;;10.50;10.50;;;;;5.32;83.26;97815.91;5075890;28;45683;-82
2023/01/17 06:59:13;;;;;;;;;14.25;11.50;;;;;5.34;83.63;97819.19;5076134;28;45873;-81
2023/01/17 07:01:40;;;;;;;;;15.00;14.50;;;;;5.30;82.91;97810.03;5075965;28;46543;-82
2023/01/17 07:04:07;;;;;;;;;19.25;15.25;;;;;5.27;82.86;97808.56;5075715;28;46310;-80
2023/01/17 07:09:53;;;;;;;;;17.75;15.00;;;;;5.38;83.00;97823.13;5075091;28;45626;-82
2023/01/17 07:12:19;;;;;;;;;19.50;17.25;;;;;5.38;83.10;97820.53;5077448;28;45562;-82
2023/01/17 07:14:44;;;;;;;;;15.00;14.00;;;;;5.37;82.87;97811.94;5059030;28;46189;-79
2023/01/17 07:17:09;;;;;;;;;13.75;9.75;;;;;5.42;82.81;97819.28;5074800;28;45643;-78
2023/01/17 07:19:35;;;;;;;;;18.50;14.00;;;;;5.28;83.41;97797.25;5074624;28;45678;-81
2023/01/17 07:25:22;;;;;;;;;56.00;42.50;;;;;5.49;83.28;97826.34;5074374;28;45944;-82
2023/01/17 07:27:47;;;;;;;;;19.50;17.00;;;;;5.53;83.50;97826.03;5074790;28;45608;-79
2023/01/17 07:30:13;;;;;;;;;23.25;19.00;;;;;5.55;83.61;97827.53;5074427;28;45609;-75
2023/01/17 07:32:38;;;;;;;;;18.50;15.75;;;;;5.49;83.28;97804.75;5074720;28;46296;-74
2023/01/17 07:35:05;;;;;;;;;20.75;16.00;;;;;5.61;83.42;97813.16;5074336;28;45834;-75
2023/01/17 07:37:30;;;;;;;;;11.50;11.00;;;;;5.63;82.66;97809.44;5074347;28;45604;-74
2023/01/17 07:39:56;;;;;;;;;18.00;14.25;;;;;5.66;82.81;97813.53;5056289;28;45949;-75
2023/01/17 07:42:22;;;;;;;;;15.00;13.75;;;;;5.69;82.85;97815.81;5074753;28;45632;-78
2023/01/17 07:44:47;;;;;;;;;18.00;15.00;;;;;5.69;82.68;97808.03;5074272;28;46044;-78
2023/01/17 07:47:12;;;;;;;;;13.25;12.00;;;;;5.68;82.30;97809.00;5073955;28;45570;-79
2023/01/17 07:49:38;;;;;;;;;15.50;12.25;;;;;5.55;82.37;97796.38;5074515;28;45897;-76
2023/01/17 07:55:28;;;;;;;;;17.75;15.00;;;;;5.59;82.46;97805.50;5063159;28;45678;-76
2023/01/17 07:57:54;;;;;;;;;21.50;14.50;;;;;5.68;82.57;97820.19;5074574;28;45635;-74
2023/01/17 08:00:21;;;;;;;;;18.75;15.75;;;;;5.63;82.63;97808.63;5073870;28;45766;-78
2023/01/17 08:02:47;;;;;;;;;12.25;12.00;;;;;5.66;82.27;97816.97;5056615;28;46793;-75
2023/01/17 08:05:12;;;;;;;;;10.50;9.00;;;;;5.65;82.21;97812.72;5074289;28;45703;-74
2023/01/17 08:10:59;;;;;;;;;9.00;8.00;;;;;5.67;82.37;97818.56;5074314;28;45757;-76
2023/01/17 08:13:24;;;;;;;;;9.50;8.75;;;;;5.62;82.77;97814.78;5074278;28;46665;-78
2023/01/17 08:15:50;;;;;;;;;11.00;6.25;;;;;5.72;82.66;97826.72;5073956;28;46315;-75
2023/01/17 08:18:17;;;;;;;;;12.00;11.00;;;;;5.75;82.20;97825.63;5074180;28;45840;-75
2023/01/17 08:20:43;;;;;;;;;15.75;11.25;;;;;5.75;82.82;97825.63;5074636;28;45748;-78
2023/01/17 08:23:09;;;;;;;;;4.00;2.50;;;;;5.69;82.52;97818.41;5074295;28;46618;-78
2023/01/17 08:25:35;;;;;;;;;11.50;9.00;;;;;5.76;82.11;97833.28;5075354;28;46411;-78
2023/01/17 08:28:00;;;;;;;;;13.75;11.00;;;;;5.77;82.24;97828.91;5074980;28;45542;-80
2023/01/17 08:30:26;;;;;;;;;8.75;8.25;;;;;5.73;82.04;97830.16;5075054;28;45795;-82
2023/01/17 08:32:52;;;;;;;;;11.00;9.00;;;;;5.75;82.10;97825.63;5074857;28;46583;-79
2023/01/17 08:35:18;;;;;;;;;11.25;10.00;;;;;5.71;82.50;97822.53;5076794;28;45675;-81
2023/01/17 08:41:05;;;;;;;;;12.50;11.00;;;;;5.77;82.36;97834.94;5075988;28;45565;-81
2023/01/17 08:43:30;;;;;;;;;14.75;11.75;;;;;5.79;82.40;97829.56;5075025;28;47947;-75
2023/01/17 08:45:56;;;;;;;;;9.00;9.00;;;;;5.76;82.53;97816.88;5056973;28;46154;-80
2023/01/17 08:48:22;;;;;;;;;8.00;7.50;;;;;5.83;82.04;97829.13;5075140;28;45742;-81
2023/01/17 08:50:48;;;;;;;;;12.75;9.00;;;;;5.84;82.14;97827.34;5074885;28;45762;-77
2023/01/17 08:53:14;;;;;;;;;11.50;8.50;;;;;5.85;82.15;97826.38;5073008;28;46534;-74
2023/01/17 08:55:39;;;;;;;;;13.00;10.25;;;;;5.88;81.75;97828.72;5072657;28;47036;-81
2023/01/17 08:58:06;;;;;;;;;10.50;9.00;;;;;5.88;81.89;97826.91;5073866;28;45782;-79
2023/01/17 09:00:32;;;;;;;;;11.50;9.00;;;;;5.90;82.26;97822.41;5073970;28;45758;-80
2023/01/17 09:02:58;;;;;;;;;13.00;10.00;;;;;5.93;81.83;97812.69;5075026;28;46096;-77
2023/01/17 09:05:23;;;;;;;;;10.00;7.00;;;;;5.93;82.07;97813.50;5074214;28;46393;-81
2023/01/17 09:11:12;;;;;;;;;10.75;10.75;;;;;5.98;81.60;97816.47;5075004;28;45664;-78
2023/01/17 09:13:38;;;;;;;;;11.75;8.75;;;;;5.97;81.86;97807.03;5058000;28;47521;-77
2023/01/17 09:16:05;;;;;;;;;9.00;8.75;;;;;6.02;82.04;97814.38;5076243;28;47256;-78
2023/01/17 09:18:32;;;;;;;;;12.75;11.00;;;;;6.04;81.75;97820.25;5073289;28;45913;-77
2023/01/17 09:21:00;;;;;;;;;9.50;8.50;;;;;6.07;81.67;97819.94;5090440;27;45849;-77
2023/01/17 09:26:47;;;;;;;;;9.00;8.75;;;;;6.11;81.55;97816.06;5075097;28;45755;-80
2023/01/17 09:29:16;;;;;;;;;9.75;9.00;;;;;6.11;81.19;97818.69;5056478;28;45532;-80
2023/01/17 09:31:42;;;;;;;;;10.75;9.00;;;;;6.09;81.41;97820.63;5074333;28;45760;-79
2023/01/17 09:34:08;;;;;;;;;8.50;7.00;;;;;6.15;81.26;97825.22;5073569;28;46581;-79
2023/01/17 09:36:34;;;;;;;;;8.75;8.75;;;;;6.14;81.21;97821.81;5073020;28;46189;-78
2023/01/17 09:39:00;;;;;;;;;8.50;7.50;;;;;6.13;81.37;97812.38;5054456;28;45875;-73
2023/01/17 09:41:29;;;;;;;;;9.00;8.00;;;;;6.17;81.24;97837.09;5073187;28;45509;-81
2023/01/17 09:44:21;;;;;;;;;5.00;2.50;;;;;6.22;80.93;97829.66;5074331;28;46521;-73
2023/01/17 09:46:48;;;;;;;;;11.25;6.00;;;;;6.24;80.81;97832.94;5013797;28;46371;-78
2023/01/17 09:49:39;;;;;;;;;7.50;7.00;;;;;6.26;81.22;97828.38;5014276;28;45799;-76
2023/01/17 09:52:08;;;;;;;;;8.50;8.00;;;;;6.27;81.09;97827.44;4997657;28;45572;-76
2023/01/17 09:54:38;;;;;;;;;8.25;6.00;;;;;6.33;81.15;97833.81;5013902;28;46587;-74
2023/01/17 09:57:33;;;;;;;;;5.25;5.25;;;;;6.37;81.04;97834.34;5013867;28;46063;-74
2023/01/17 10:00:05;;;;;;;;;12.00;8.50;;;;;6.40;81.06;97850.44;5013953;28;45586;-76
2023/01/17 10:03:03;;;;;;;;;11.25;10.25;;;;;6.33;80.70;97833.81;5013932;28;45778;-77
2023/01/17 10:05:57;;;;;;;;;13.50;11.00;;;;;6.42;80.69;97853.72;4996778;28;47702;-76
2023/01/17 10:08:44;;;;;;;;;7.00;5.50;;;;;6.44;81.28;97843.97;5013375;28;47265;-77
2023/01/17 10:11:41;;;;;;;;;16.00;12.50;;;;;6.48;80.74;97854.91;5014339;28;45839;-79
2023/01/17 10:14:26;;;;;;;;;12.00;11.25;;;;;6.48;80.58;97860.09;4974635;28;45707;-83
2023/01/17 10:17:26;;;;;;;;;12.25;8.00;;;;;6.49;79.97;97862.53;4973956;28;47562;-80
2023/01/17 10:19:54;;;;;;;;;8.50;8.00;;;;;6.47;79.97;97859.28;4973633;28;47032;-78
2023/01/17 10:25:46;;;;;;;;;17.00;13.00;;;;;6.45;80.46;97857.78;5013355;28;45739;-78
2023/01/17 10:28:16;;;;;;;;;12.50;12.50;;;;;6.47;80.12;97861.06;5012625;28;46605;-78
2023/01/17 10:30:47;;;;;;;;;13.25;12.75;;;;;6.45;79.61;97852.59;5012946;28;46289;-76
2023/01/17 10:33:20;;;;;;;;;8.00;8.00;;;;;6.43;79.48;97855.34;5013468;28;45909;-77
2023/01/17 10:36:01;;;;;;;;;7.00;3.75;;;;;6.40;79.69;97858.25;5012885;28;45587;-75
2023/01/17 10:42:10;;;;;;;;;12.25;10.25;;;;;6.36;79.57;97846.53;5012991;28;45597;-78
2023/01/17 10:44:49;;;;;;;;;15.50;15.00;;;;;6.33;79.56;97852.81;5013103;28;45749;-79
2023/01/17 10:47:22;;;;;;;;;13.00;12.50;;;;;6.30;79.42;97853.13;5013317;28;45674;-74
2023/01/17 10:49:52;;;;;;;;;11.50;9.00;;;;;6.31;79.75;97856.56;5009038;28;47569;-79
2023/01/17 10:52:52;;;;;;;;;15.00;14.00;;;;;6.23;79.52;97839.09;5075246;28;45621;-78
2023/01/17 10:55:29;;;;;;;;;13.00;12.00;;;;;6.27;79.38;97850.00;5076102;27;45777;-76
2023/01/17 10:57:56;;;;;;;;;4.50;4.00;;;;;6.27;80.08;97852.59;5077169;28;45676;-75
2023/01/17 11:00:40;;;;;;;;;14.00;11.75;;;;;6.29;79.69;97840.28;5075192;28;46325;-72
2023/01/17 11:03:09;;;;;;;;;14.25;12.00;;;;;6.26;79.76;97838.78;5076486;28;47111;-77
2023/01/17 11:05:37;;;;;;;;;12.75;12.50;;;;;6.27;79.29;97842.22;5075248;28;45977;-80
2023/01/17 11:08:12;;;;;;;;;11.00;9.75;;;;;6.24;80.03;97829.53;5075188;28;45868;-79
2023/01/17 11:10:47;;;;;;;;;16.00;13.00;;;;;6.26;80.10;97825.00;5075076;28;45674;-79
2023/01/17 11:13:23;;;;;;;;;15.00;12.00;;;;;6.34;79.54;97835.44;5073669;28;46214;-77
2023/01/17 11:15:59;;;;;;;;;15.75;13.00;;;;;6.32;79.79;97820.00;5074384;28;45524;-76
2023/01/17 11:18:28;;;;;;;;;15.00;11.00;;;;;6.27;79.56;97805.81;5074733;28;45653;-74
2023/01/17 11:21:15;;;;;;;;;9.75;9.75;;;;;6.40;79.51;97816.66;5075161;28;46197;-77
2023/01/17 11:23:43;;;;;;;;;9.50;8.25;;;;;6.41;79.97;97822.66;5074945;28;45609;-76
2023/01/17 11:26:19;;;;;;;;;13.25;11.75;;;;;6.46;79.74;97823.03;5075568;28;45977;-77
2023/01/17 11:28:45;;;;;;;;;11.00;8.00;;;;;6.50;79.36;97816.53;5074682;28;45529;-83
2023/01/17 11:31:30;;;;;;;;;15.75;11.75;;;;;6.50;79.22;97822.56;5074577;28;45665;-79
2023/01/17 11:34:12;;;;;;;;;11.00;9.00;;;;;6.50;79.07;97816.53;5074875;28;46262;-79
2023/01/17 11:36:37;;;;;;;;;7.50;7.00;;;;;6.47;78.94;97809.88;5074812;28;45622;-77
2023/01/17 11:39:20;;;;;;;;;9.50;6.00;;;;;6.48;79.03;97808.88;5056461;28;45593;-83
2023/01/17 11:41:46;;;;;;;;;13.50;11.00;;;;;6.48;79.01;97808.09;5075048;28;46984;-82
2023/01/17 11:44:34;;;;;;;;;14.75;12.25;;;;;6.47;78.96;97817.69;5075454;28;46521;-81
2023/01/17 11:47:12;;;;;;;;;11.25;10.75;;;;;6.46;79.37;97810.84;5090503;27;46013;-74
2023/01/17 11:49:43;;;;;;;;;14.50;11.00;;;;;6.47;79.35;97809.06;5075361;28;45592;-74
2023/01/17 11:52:17;;;;;;;;;15.00;9.00;;;;;6.47;79.15;97804.69;5074878;28;45520;-76
2023/01/17 11:54:45;;;;;;;;;12.25;11.00;;;;;6.49;79.74;97815.72;5074220;28;46223;-77
2023/01/17 11:57:27;;;;;;;;;12.50;12.00;;;;;6.52;79.14;97815.44;5074394;28;45844;-74
2023/01/17 12:00:13;;;;;;;;;16.00;10.25;;;;;6.39;79.02;97796.00;5074332;28;45709;-76
2023/01/17 12:02:41;;;;;;;;;12.50;11.00;;;;;6.51;78.78;97806.00;5074508;28;45615;-75
2023/01/17 12:05:17;;;;;;;;;10.25;9.50;;;;;6.51;79.14;97794.78;5074260;28;46075;-75
2023/01/17 12:11:13;;;;;;;;;14.25;13.50;;;;;6.51;78.74;97787.78;5074615;28;45526;-77
2023/01/17 12:14:00;;;;;;;;;10.25;9.00;;;;;6.51;79.10;97785.19;5074134;28;46592;-75
2023/01/17 12:16:43;;;;;;;;;12.00;11.75;;;;;6.53;79.33;97788.44;5072492;28;47895;-76
2023/01/17 12:19:31;;;;;;;;;9.00;8.25;;;;;6.55;79.41;97783.09;5074448;28;45999;-77
2023/01/17 12:22:17;;;;;;;;;12.50;11.25;;;;;6.59;78.93;97781.81;5074539;28;45537;-76
2023/01/17 12:28:55;;;;;;;;;11.25;10.00;;;;;6.59;79.14;97774.81;5074487;28;46109;-76
2023/01/17 12:31:39;;;;;;;;;4.00;2.50;;;;;6.58;79.25;97772.41;5076622;28;45580;-76
2023/01/17 12:34:17;;;;;;;;;12.00;10.00;;;;;6.63;79.01;97780.56;5075932;28;45552;-75
2023/01/17 12:37:10;;;;;;;;;15.50;12.75;;;;;6.62;78.77;97777.13;5075957;28;46458;-74
2023/01/17 12:39:42;;;;;;;;;13.00;11.50;;;;;6.63;78.87;97778.78;5073409;28;46182;-74
2023/01/17 12:42:18;;;;;;;;;12.50;9.50;;;;;6.65;78.53;97776.00;5074352;28;45610;-77
2023/01/17 12:44:56;;;;;;;;;10.00;10.00;;;;;6.62;78.14;97769.34;5074008;28;45529;-79
2023/01/17 12:47:22;;;;;;;;;12.75;10.25;;;;;6.54;78.34;97766.66;5073377;28;46092;-82
2023/01/17 12:50:10;;;;;;;;;10.00;9.00;;;;;6.23;78.70;97732.53;5073755;28;46123;-83
2023/01/17 12:52:43;;;;;;;;;12.00;9.00;;;;;6.50;78.16;97767.94;5051934;28;45523;-79
2023/01/17 12:55:19;;;;;;;;;9.75;9.75;;;;;6.49;78.46;97763.72;5067997;28;45714;-76
2023/01/17 12:57:54;;;;;;;;;11.00;8.75;;;;;6.41;78.30;97757.66;5051508;28;47627;-77
2023/01/17 13:00:24;;;;;;;;;10.50;8.50;;;;;6.51;78.28;97773.97;5052822;28;46205;-81
2023/01/17 13:03:06;;;;;;;;;11.75;8.25;;;;;6.49;78.10;97783.69;5052835;27;45464;-81
2023/01/17 13:05:40;;;;;;;;;9.00;9.00;;;;;6.46;77.90;97779.63;5053337;28;45635;-76
2023/01/17 13:11:42;;;;;;;;;9.00;9.00;;;;;6.37;78.13;97769.34;5053243;28;45555;-82
2023/01/17 13:14:09;;;;;;;;;11.50;9.50;;;;;6.38;78.28;97771.78;5052910;27;45898;-77
2023/01/17 13:16:41;;;;;;;;;12.00;9.00;;;;;6.29;78.29;97763.13;5053262;28;45490;-79
2023/01/17 13:19:24;;;;;;;;;13.75;11.00;;;;;6.38;77.75;97769.16;5056060;28;46472;-73
2023/01/17 13:21:51;;;;;;;;;7.50;6.25;;;;;6.32;77.99;97768.00;5056605;28;45653;-77
2023/01/17 13:28:02;;;;;;;;;8.25;8.00;;;;;6.25;77.86;97781.78;5057413;28;45465;-80
2023/01/17 13:30:33;;;;;;;;;9.50;8.25;;;;;6.23;78.11;97781.91;5056393;28;47596;-77
2023/01/17 13:33:40;;;;;;;;;12.50;11.00;;;;;6.18;78.24;97784.16;5057937;28;46190;-77
2023/01/17 13:36:49;;;;;;;;;14.75;9.00;;;;;6.15;78.48;97778.44;5054503;28;45941;-81
2023/01/17 13:42:56;;;;;;;;;7.50;7.50;;;;;6.14;78.52;97784.59;4995713;28;45756;-75
2023/01/17 13:45:27;;;;;;;;;9.00;9.00;;;;;6.09;78.49;97777.28;4997383;28;46548;-76
2023/01/17 13:47:52;;;;;;;;;10.75;8.00;;;;;6.09;78.51;97773.84;4996463;28;45574;-73
2023/01/17 13:50:39;;;;;;;;;8.00;6.00;;;;;6.12;78.25;97776.94;4997149;28;45723;-74
2023/01/17 13:53:32;;;;;;;;;12.50;11.25;;;;;6.10;78.28;97785.88;4995892;28;45685;-80
2023/01/17 13:57:05;;;;;;;;;11.00;8.25;;;;;6.08;78.26;97787.81;4978147;28;47166;-76
2023/01/17 13:59:30;;;;;;;;;11.75;9.00;;;;;6.02;78.29;97791.00;4994432;28;45592;-76
2023/01/17 14:01:55;;;;;;;;;11.75;10.50;;;;;5.93;78.56;97784.09;4994349;28;45704;-77
2023/01/17 14:04:21;;;;;;;;;10.00;9.25;;;;;5.96;78.66;97794.19;4994134;28;46263;-78
2023/01/17 14:06:56;;;;;;;;;11.75;9.25;;;;;5.90;78.70;97795.59;4995773;28;46246;-79
2023/01/17 14:12:43;;;;;;;;;14.75;10.75;;;;;5.95;78.65;97784.75;5002699;28;45592;-78
2023/01/17 14:15:20;;;;;;;;;11.50;8.50;;;;;5.99;79.15;97799.94;5013778;28;46363;-77
2023/01/17 14:17:50;;;;;;;;;10.75;8.00;;;;;6.01;78.55;97804.94;5055583;28;46203;-77
2023/01/17 14:20:16;;;;;;;;;11.75;11.00;;;;;6.03;78.28;97810.81;5055689;27;45575;-79
2023/01/17 14:22:51;;;;;;;;;8.00;7.50;;;;;6.03;78.53;97803.84;5055802;28;45633;-77
2023/01/17 14:28:37;;;;;;;;;5.50;3.00;;;;;6.00;78.26;97819.72;5055619;28;46110;-80
2023/01/17 14:31:08;;;;;;;;;8.50;8.00;;;;;6.00;78.47;97822.31;5055701;28;45468;-82
2023/01/17 14:33:38;;;;;;;;;4.00;3.50;;;;;5.92;78.44;97811.06;5056555;28;45793;-78
2023/01/17 14:36:06;;;;;;;;;11.00;10.00;;;;;6.01;78.00;97831.75;5056315;28;45652;-81
2023/01/17 14:38:34;;;;;;;;;9.25;8.00;;;;;5.96;77.91;97822.78;5056470;28;47105;-77
2023/01/17 14:44:21;;;;;;;;;10.25;6.25;;;;;5.92;77.62;97844.81;5055741;28;45570;-79
2023/01/17 14:46:47;;;;;;;;;9.00;8.25;;;;;5.87;77.82;97842.69;5055907;28;46841;-75
2023/01/17 14:49:24;;;;;;;;;5.00;5.00;;;;;5.82;78.20;97832.69;5056244;28;47241;-77
2023/01/17 14:52:01;;;;;;;;;8.00;7.00;;;;;5.82;78.24;97837.91;5055679;28;45584;-79
2023/01/17 14:54:26;;;;;;;;;9.00;8.25;;;;;5.86;78.15;97849.63;5055926;28;45727;-78
2023/01/17 14:57:12;;;;;;;;;12.00;10.00;;;;;5.63;78.04;97806.84;5055139;28;47242;-78
2023/01/17 14:59:37;;;;;;;;;11.00;8.75;;;;;5.83;78.40;97854.31;5076259;28;46704;-77